Time;durP1;ratioP1;P1;durP2;ratioP2;P2;SDS_P1;SDS_P2;PMS_P1;PMS_P2;Temp;Humidity;BMP_temperature;BMP_pressure;BME280_temperature;BME280_humidity;BME280_pressure;Samples;Min_cycle;Max_cycle;Signal;HPM_P1;HPM_P2
2022/07/05 00:01:12;;;;;;;2.85;2.45;;;;;;;;;;4916289;29;20052;-64
2022/07/05 00:03:39;;;;;;;2.92;2.65;;;;;;;;;;4916608;29;20056;-64
2022/07/05 00:06:06;;;;;;;4.00;2.78;;;;;;;;;;4916230;29;20083;-65
2022/07/05 00:08:33;;;;;;;4.50;2.40;;;;;;;;;;4914960;29;20059;-65
2022/07/05 00:10:59;;;;;;;4.28;2.33;;;;;;;;;;4916212;29;20052;-64
2022/07/05 00:13:26;;;;;;;4.13;2.10;;;;;;;;;;4916592;29;20079;-64
2022/07/05 00:15:53;;;;;;;4.13;2.08;;;;;;;;;;4916076;29;20126;-65
2022/07/05 00:18:19;;;;;;;2.95;2.13;;;;;;;;;;4915881;29;20076;-63
2022/07/05 00:20:46;;;;;;;3.53;2.10;;;;;;;;;;4915135;29;20103;-64
2022/07/05 00:23:12;;;;;;;3.75;2.60;;;;;;;;;;4916163;29;20063;-64
2022/07/05 00:25:39;;;;;;;5.00;2.92;;;;;;;;;;4914899;29;20052;-65
2022/07/05 00:28:06;;;;;;;4.97;2.70;;;;;;;;;;4915745;29;20048;-64
2022/07/05 00:30:32;;;;;;;3.70;2.35;;;;;;;;;;4915613;29;20060;-65
2022/07/05 00:32:59;;;;;;;3.42;2.05;;;;;;;;;;4916174;29;20139;-65
2022/07/05 00:35:26;;;;;;;3.05;2.05;;;;;;;;;;4916005;29;20055;-63
2022/07/05 00:37:54;;;;;;;5.20;2.45;;;;;;;;;;4915716;29;20056;-64
2022/07/05 00:40:20;;;;;;;4.10;2.55;;;;;;;;;;4915762;29;20503;-64
2022/07/05 00:42:47;;;;;;;4.63;2.60;;;;;;;;;;4914654;29;20052;-65
2022/07/05 00:45:13;;;;;;;3.83;2.42;;;;;;;;;;4915630;29;20132;-65
2022/07/05 00:47:40;;;;;;;3.08;2.30;;;;;;;;;;4915928;29;20056;-64
2022/07/05 00:50:07;;;;;;;4.22;2.60;;;;;;;;;;4915452;29;20044;-64
2022/07/05 00:52:34;;;;;;;4.35;2.35;;;;;;;;;;4915938;29;20052;-64
2022/07/05 00:55:01;;;;;;;6.43;3.03;;;;;;;;;;4898762;29;20048;-64
2022/07/05 00:57:27;;;;;;;4.63;2.80;;;;;;;;;;4914855;29;20052;-65
2022/07/05 00:59:54;;;;;;;5.93;2.63;;;;;;;;;;4915319;29;20078;-64
2022/07/05 01:02:23;;;;;;;6.28;2.85;;;;;;;;;;4915832;29;20055;-64
2022/07/05 01:04:50;;;;;;;3.85;3.00;;;;;;;;;;4915445;29;20063;-65
2022/07/05 01:07:22;;;;;;;3.63;2.53;;;;;;;;;;4914140;29;20051;-64
2022/07/05 01:09:49;;;;;;;3.40;2.65;;;;;;;;;;4913920;29;20052;-65
2022/07/05 01:12:17;;;;;;;3.08;2.70;;;;;;;;;;4915417;29;20063;-65
2022/07/05 01:14:43;;;;;;;4.78;2.95;;;;;;;;;;4914495;29;20425;-64
2022/07/05 01:17:11;;;;;;;2.92;2.67;;;;;;;;;;4914598;29;20048;-64
2022/07/05 01:19:38;;;;;;;4.22;2.63;;;;;;;;;;4918024;29;20274;-64
2022/07/05 01:22:07;;;;;;;4.25;2.90;;;;;;;;;;4919535;29;20059;-64
2022/07/05 01:24:34;;;;;;;3.83;2.75;;;;;;;;;;4902719;29;20059;-64
2022/07/05 01:27:01;;;;;;;4.30;2.78;;;;;;;;;;4902633;29;20055;-64
2022/07/05 01:29:27;;;;;;;3.10;2.75;;;;;;;;;;4902292;29;20048;-64
2022/07/05 01:31:54;;;;;;;2.67;2.15;;;;;;;;;;4919176;29;20052;-64
2022/07/05 01:34:21;;;;;;;2.95;2.65;;;;;;;;;;4919137;29;20052;-64
2022/07/05 01:36:47;;;;;;;3.15;2.70;;;;;;;;;;4918970;29;20459;-64
2022/07/05 01:39:14;;;;;;;4.32;2.78;;;;;;;;;;4917569;29;20052;-64
2022/07/05 01:41:41;;;;;;;2.67;2.47;;;;;;;;;;4902318;29;20056;-65
2022/07/05 01:44:07;;;;;;;4.40;2.80;;;;;;;;;;4918992;29;20051;-63
2022/07/05 01:46:36;;;;;;;3.58;2.50;;;;;;;;;;4917551;29;20423;-64
2022/07/05 01:49:08;;;;;;;3.70;2.95;;;;;;;;;;4917125;29;20052;-65
2022/07/05 01:51:42;;;;;;;3.27;2.97;;;;;;;;;;4918718;29;20056;-64
2022/07/05 01:54:08;;;;;;;3.40;2.85;;;;;;;;;;4917306;29;20099;-64
2022/07/05 01:56:37;;;;;;;3.78;3.08;;;;;;;;;;4928242;23;20056;-65
2022/07/05 01:59:04;;;;;;;5.22;3.22;;;;;;;;;;4898651;29;20052;-64
2022/07/05 02:01:32;;;;;;;6.38;3.25;;;;;;;;;;4915748;29;20055;-65
2022/07/05 02:03:59;;;;;;;3.95;2.90;;;;;;;;;;4899638;29;20514;-65
2022/07/05 02:06:26;;;;;;;9.55;3.03;;;;;;;;;;4899589;29;20439;-64
2022/07/05 02:08:53;;;;;;;6.95;3.13;;;;;;;;;;4899605;29;20416;-65
2022/07/05 02:11:19;;;;;;;5.18;3.50;;;;;;;;;;4899889;29;20048;-65
2022/07/05 02:13:46;;;;;;;6.18;3.50;;;;;;;;;;4899843;29;20060;-65
2022/07/05 02:16:12;;;;;;;4.75;3.30;;;;;;;;;;4900334;29;20052;-65
2022/07/05 02:18:40;;;;;;;5.13;3.58;;;;;;;;;;4899590;29;20060;-65
2022/07/05 02:21:06;;;;;;;7.05;3.70;;;;;;;;;;4899668;29;20052;-65
2022/07/05 02:23:33;;;;;;;4.90;3.47;;;;;;;;;;4899586;29;20060;-65
2022/07/05 02:26:00;;;;;;;4.22;2.80;;;;;;;;;;4899546;29;20068;-65
2022/07/05 02:28:26;;;;;;;3.90;2.90;;;;;;;;;;4898860;29;20458;-65
2022/07/05 02:30:53;;;;;;;4.47;2.75;;;;;;;;;;4898679;29;20044;-65
2022/07/05 02:33:20;;;;;;;2.85;2.60;;;;;;;;;;4899255;29;20496;-65
2022/07/05 02:35:46;;;;;;;4.72;2.95;;;;;;;;;;4899582;29;20083;-65
2022/07/05 02:38:13;;;;;;;3.30;2.70;;;;;;;;;;4899273;29;20044;-65
2022/07/05 02:40:40;;;;;;;6.13;2.90;;;;;;;;;;4899185;29;20056;-65
2022/07/05 02:43:06;;;;;;;3.50;2.80;;;;;;;;;;4899138;29;20057;-65
2022/07/05 02:45:33;;;;;;;3.00;2.70;;;;;;;;;;4899171;29;20404;-65
2022/07/05 02:47:59;;;;;;;3.38;2.80;;;;;;;;;;4898886;29;20076;-65
2022/07/05 02:50:26;;;;;;;4.00;2.42;;;;;;;;;;4898781;29;20543;-65
2022/07/05 02:52:53;;;;;;;2.50;2.30;;;;;;;;;;4898879;29;20063;-65
2022/07/05 02:55:19;;;;;;;3.00;2.70;;;;;;;;;;4898954;29;20056;-65
2022/07/05 02:57:46;;;;;;;3.88;3.08;;;;;;;;;;4913439;29;20534;-65
2022/07/05 03:00:13;;;;;;;5.13;2.92;;;;;;;;;;4898793;29;20059;-65
2022/07/05 03:02:40;;;;;;;3.40;2.78;;;;;;;;;;4880000;29;20052;-65
2022/07/05 03:05:07;;;;;;;3.55;2.78;;;;;;;;;;4879575;29;20056;-65
2022/07/05 03:07:33;;;;;;;2.92;2.50;;;;;;;;;;4885960;29;20067;-65
2022/07/05 03:10:00;;;;;;;3.00;2.60;;;;;;;;;;4898225;29;20131;-65
2022/07/05 03:12:27;;;;;;;4.82;3.20;;;;;;;;;;4899307;29;20049;-65
2022/07/05 03:14:53;;;;;;;3.17;2.88;;;;;;;;;;4898320;29;20595;-65
2022/07/05 03:17:20;;;;;;;3.42;2.92;;;;;;;;;;4898637;29;20049;-65
2022/07/05 03:19:47;;;;;;;4.00;3.30;;;;;;;;;;4898089;29;20132;-64
2022/07/05 03:22:13;;;;;;;4.38;2.60;;;;;;;;;;4897937;29;20063;-64
2022/07/05 03:24:40;;;;;;;4.88;3.10;;;;;;;;;;4898213;29;20165;-65
2022/07/05 03:27:08;;;;;;;4.45;3.10;;;;;;;;;;4898057;29;20060;-65
2022/07/05 03:29:35;;;;;;;6.20;3.53;;;;;;;;;;4898378;29;20052;-65
2022/07/05 03:32:02;;;;;;;3.72;3.20;;;;;;;;;;4897941;29;20522;-65
2022/07/05 03:34:41;;;;;;;4.60;3.08;;;;;;;;;;4898257;29;20056;-65
2022/07/05 03:37:08;;;;;;;3.88;3.47;;;;;;;;;;4898115;29;20174;-64
2022/07/05 03:39:36;;;;;;;4.60;3.50;;;;;;;;;;4897764;29;20080;-64
2022/07/05 03:42:03;;;;;;;4.07;3.50;;;;;;;;;;4897434;29;20132;-65
2022/07/05 03:44:32;;;;;;;4.85;3.10;;;;;;;;;;4897913;29;20427;-65
2022/07/05 03:46:59;;;;;;;4.18;3.78;;;;;;;;;;4897791;29;20049;-65
2022/07/05 03:49:26;;;;;;;3.75;3.28;;;;;;;;;;4897591;29;20106;-65
2022/07/05 03:51:53;;;;;;;6.05;3.35;;;;;;;;;;4897840;29;20172;-65
2022/07/05 03:54:19;;;;;;;4.55;3.05;;;;;;;;;;4897657;29;20052;-65
2022/07/05 03:56:46;;;;;;;6.43;3.67;;;;;;;;;;4897430;29;20063;-65
2022/07/05 03:59:13;;;;;;;7.40;3.20;;;;;;;;;;4897441;29;20060;-66
2022/07/05 04:01:40;;;;;;;5.15;3.33;;;;;;;;;;4897805;29;20049;-66
2022/07/05 04:04:06;;;;;;;3.78;3.35;;;;;;;;;;4897313;29;20063;-66
2022/07/05 04:06:33;;;;;;;4.95;3.20;;;;;;;;;;4897453;29;20048;-66
2022/07/05 04:09:00;;;;;;;5.47;3.20;;;;;;;;;;4897194;29;20060;-66
2022/07/05 04:11:27;;;;;;;4.85;3.13;;;;;;;;;;4897232;29;20055;-66
2022/07/05 04:13:54;;;;;;;4.88;3.95;;;;;;;;;;4897101;29;20052;-66
2022/07/05 04:16:22;;;;;;;4.25;3.53;;;;;;;;;;4897339;29;20540;-66
2022/07/05 04:18:48;;;;;;;3.22;3.03;;;;;;;;;;4897270;29;20052;-66
2022/07/05 04:21:15;;;;;;;6.38;3.47;;;;;;;;;;4892349;29;20051;-66
2022/07/05 04:23:42;;;;;;;3.38;3.08;;;;;;;;;;4878470;29;20419;-66
2022/07/05 04:26:09;;;;;;;3.72;3.40;;;;;;;;;;4878244;29;20076;-66
2022/07/05 04:28:36;;;;;;;4.78;3.22;;;;;;;;;;4878191;29;20057;-66
2022/07/05 04:31:02;;;;;;;4.70;3.58;;;;;;;;;;4878368;29;20497;-66
2022/07/05 04:33:30;;;;;;;3.78;3.47;;;;;;;;;;4882812;29;20084;-66
2022/07/05 04:35:57;;;;;;;5.97;3.55;;;;;;;;;;4896921;29;20516;-66
2022/07/05 04:38:24;;;;;;;4.22;3.65;;;;;;;;;;4896838;29;20427;-66
2022/07/05 04:40:50;;;;;;;4.22;3.50;;;;;;;;;;4897172;29;20044;-66
2022/07/05 04:43:17;;;;;;;5.82;3.95;;;;;;;;;;4897056;29;20056;-66
2022/07/05 04:45:43;;;;;;;4.53;4.13;;;;;;;;;;4896893;29;20393;-66
2022/07/05 04:48:10;;;;;;;7.32;3.95;;;;;;;;;;4896640;29;20132;-70
2022/07/05 04:50:37;;;;;;;5.05;4.40;;;;;;;;;;4893913;29;20053;-67
2022/07/05 04:53:04;;;;;;;4.80;3.80;;;;;;;;;;4894418;29;20061;-67
2022/07/05 04:55:30;;;;;;;5.82;4.32;;;;;;;;;;4894731;29;20500;-66
2022/07/05 04:57:57;;;;;;;6.28;4.10;;;;;;;;;;4894748;29;20052;-66
2022/07/05 05:00:24;;;;;;;4.93;4.00;;;;;;;;;;4894756;29;20059;-66
2022/07/05 05:02:50;;;;;;;4.35;3.95;;;;;;;;;;4894380;29;20067;-66
2022/07/05 05:05:17;;;;;;;5.07;4.57;;;;;;;;;;4894681;29;20056;-66
2022/07/05 05:07:44;;;;;;;5.18;4.30;;;;;;;;;;4894691;29;20058;-66
2022/07/05 05:10:11;;;;;;;6.22;4.20;;;;;;;;;;4894436;29;20049;-66
2022/07/05 05:12:38;;;;;;;8.80;4.70;;;;;;;;;;4894791;29;20483;-67
2022/07/05 05:15:09;;;;;;;5.97;4.68;;;;;;;;;;4894280;29;20056;-66
2022/07/05 05:17:40;;;;;;;4.53;4.13;;;;;;;;;;4894703;29;20462;-67
2022/07/05 05:20:12;;;;;;;4.95;3.78;;;;;;;;;;4894448;29;20048;-66
2022/07/05 05:22:39;;;;;;;6.80;3.95;;;;;;;;;;4894873;29;20050;-66
2022/07/05 05:25:07;;;;;;;3.80;3.15;;;;;;;;;;4894881;29;20431;-66
2022/07/05 05:27:33;;;;;;;3.83;3.20;;;;;;;;;;4894483;29;20143;-66
2022/07/05 05:30:00;;;;;;;4.18;2.38;;;;;;;;;;4893560;29;20059;-68
2022/07/05 05:32:27;;;;;;;5.40;2.75;;;;;;;;;;4886851;29;20114;-67
2022/07/05 05:34:54;;;;;;;3.45;2.33;;;;;;;;;;4889052;29;20496;-67
2022/07/05 05:37:20;;;;;;;5.15;2.03;;;;;;;;;;4885771;29;20049;-66
2022/07/05 05:39:48;;;;;;;3.08;2.00;;;;;;;;;;4883778;29;20109;-66
2022/07/05 05:42:15;;;;;;;4.55;2.17;;;;;;;;;;4882943;29;20059;-66
2022/07/05 05:44:42;;;;;;;4.07;2.00;;;;;;;;;;4882103;29;20057;-66
2022/07/05 05:47:08;;;;;;;4.10;2.20;;;;;;;;;;4882614;29;20053;-66
2022/07/05 05:49:42;;;;;;;2.75;2.00;;;;;;;;;;4882731;29;20060;-68
2022/07/05 05:52:09;;;;;;;3.20;2.15;;;;;;;;;;4886268;29;20053;-66
2022/07/05 05:54:35;;;;;;;2.85;2.10;;;;;;;;;;4880306;29;20140;-66
2022/07/05 05:57:02;;;;;;;4.82;1.80;;;;;;;;;;4884065;29;20131;-66
2022/07/05 05:59:29;;;;;;;4.00;2.00;;;;;;;;;;4889116;29;20132;-66
2022/07/05 06:01:56;;;;;;;5.57;1.92;;;;;;;;;;4889491;29;20056;-64
2022/07/05 06:04:23;;;;;;;4.72;1.75;;;;;;;;;;4891022;29;20095;-63
2022/07/05 06:06:49;;;;;;;4.32;1.90;;;;;;;;;;4887571;29;20064;-64
2022/07/05 06:09:16;;;;;;;6.13;2.13;;;;;;;;;;4892737;29;20127;-69
2022/07/05 06:11:43;;;;;;;4.80;2.13;;;;;;;;;;4916657;29;20419;-66
2022/07/05 06:14:11;;;;;;;5.93;1.85;;;;;;;;;;4916826;29;20537;-64
2022/07/05 06:16:38;;;;;;;3.22;1.60;;;;;;;;;;4917469;29;20133;-63
2022/07/05 06:19:05;;;;;;;4.80;1.55;;;;;;;;;;4899854;29;20152;-64
2022/07/05 06:21:31;;;;;;;7.28;2.00;;;;;;;;;;4899414;29;20051;-64
2022/07/05 06:23:58;;;;;;;3.38;1.50;;;;;;;;;;4899169;29;20638;-63
2022/07/05 06:26:24;;;;;;;2.78;1.75;;;;;;;;;;4899319;29;20052;-63
2022/07/05 06:28:51;;;;;;;2.05;1.35;;;;;;;;;;4899289;29;20500;-63
2022/07/05 06:31:18;;;;;;;3.28;1.58;;;;;;;;;;4899239;29;20059;-63
2022/07/05 06:33:45;;;;;;;3.25;1.63;;;;;;;;;;4899445;29;20103;-63
2022/07/05 06:36:11;;;;;;;4.45;1.40;;;;;;;;;;4899275;29;20074;-63
2022/07/05 06:38:38;;;;;;;3.75;1.55;;;;;;;;;;4898635;29;20056;-63
2022/07/05 06:41:05;;;;;;;5.22;1.58;;;;;;;;;;4899043;29;20135;-63
2022/07/05 06:43:31;;;;;;;3.70;1.65;;;;;;;;;;4898956;29;20056;-63
2022/07/05 06:45:59;;;;;;;2.97;1.40;;;;;;;;;;4898994;29;20052;-63
2022/07/05 06:48:26;;;;;;;5.03;1.73;;;;;;;;;;4898771;29;20049;-63
2022/07/05 06:50:53;;;;;;;3.33;2.10;;;;;;;;;;4898772;29;20095;-63
2022/07/05 06:53:19;;;;;;;3.58;1.67;;;;;;;;;;4898687;29;20261;-63
2022/07/05 06:55:46;;;;;;;2.45;2.03;;;;;;;;;;4898667;29;20432;-63
2022/07/05 06:58:21;;;;;;;3.13;1.95;;;;;;;;;;4898412;29;20052;-63
2022/07/05 07:00:48;;;;;;;4.32;2.10;;;;;;;;;;4898937;29;20044;-63
2022/07/05 07:03:34;;;;;;;5.80;2.65;;;;;;;;;;4898632;29;20465;-64
2022/07/05 07:06:21;;;;;;;4.35;2.10;;;;;;;;;;4898381;29;20071;-63
2022/07/05 07:11:33;;;;;;;3.35;2.22;;;;;;;;;;4898617;29;20040;-63
2022/07/05 07:13:59;;;;;;;4.75;2.45;;;;;;;;;;4898488;29;20071;-63
2022/07/05 07:16:26;;;;;;;4.00;2.40;;;;;;;;;;4897826;29;20052;-63
2022/07/05 07:18:53;;;;;;;3.67;1.92;;;;;;;;;;4898034;29;20494;-64
2022/07/05 07:21:37;;;;;;;5.43;2.42;;;;;;;;;;4898617;29;20501;-64
2022/07/05 07:24:04;;;;;;;2.80;1.80;;;;;;;;;;4898440;29;20048;-64
2022/07/05 07:27:02;;;;;;;5.85;2.20;;;;;;;;;;4898270;29;20057;-64
2022/07/05 07:29:17;;;;;;;3.65;2.20;;;;;;;;;;4897643;29;20060;-64
2022/07/05 07:31:44;;;;;;;4.63;2.30;;;;;;;;;;4898323;29;20044;-64
2022/07/05 07:34:11;;;;;;;5.80;1.75;;;;;;;;;;4898163;29;20136;-64
2022/07/05 07:36:37;;;;;;;3.72;1.60;;;;;;;;;;4898005;29;20063;-64
2022/07/05 07:39:04;;;;;;;3.53;1.45;;;;;;;;;;4897452;29;20058;-63
2022/07/05 07:41:31;;;;;;;5.88;2.17;;;;;;;;;;4897986;29;20048;-64
2022/07/05 07:43:59;;;;;;;3.35;2.15;;;;;;;;;;4897847;29;20603;-63
2022/07/05 07:46:27;;;;;;;5.72;1.60;;;;;;;;;;4897373;29;20135;-62
2022/07/05 07:48:54;;;;;;;4.72;1.70;;;;;;;;;;4897622;29;20079;-62
2022/07/05 07:51:21;;;;;;;2.22;1.40;;;;;;;;;;4892919;29;20599;-63
2022/07/05 07:53:48;;;;;;;3.63;1.60;;;;;;;;;;4890087;29;20448;-63
2022/07/05 07:56:17;;;;;;;2.80;2.00;;;;;;;;;;4885598;29;20048;-64
2022/07/05 07:58:44;;;;;;;6.40;2.33;;;;;;;;;;4902171;29;20135;-67
2022/07/05 08:01:11;;;;;;;5.38;1.77;;;;;;;;;;4887069;29;20040;-66
2022/07/05 08:03:38;;;;;;;2.60;1.40;;;;;;;;;;4885001;29;20059;-70
2022/07/05 08:06:07;;;;;;;2.53;1.60;;;;;;;;;;4883545;29;20450;-71
2022/07/05 08:08:34;;;;;;;2.70;1.27;;;;;;;;;;4884787;29;20505;-65
2022/07/05 08:11:01;;;;;;;1.58;1.38;;;;;;;;;;4883060;29;20421;-72
2022/07/05 08:13:36;;;;;;;3.30;1.40;;;;;;;;;;4882228;29;20057;-78
2022/07/05 08:16:06;;;;;;;8.18;1.88;;;;;;;;;;4884269;29;20516;-72
2022/07/05 08:21:39;;;;;;;2.22;1.30;;;;;;;;;;4889371;29;20045;-75
2022/07/05 08:24:09;;;;;;;4.00;1.38;;;;;;;;;;4887683;29;20120;-73
2022/07/05 08:26:37;;;;;;;3.10;1.67;;;;;;;;;;4875460;29;20072;-76
2022/07/05 08:29:05;;;;;;;4.43;1.45;;;;;;;;;;4892011;29;20048;-73
2022/07/05 08:31:38;;;;;;;1.83;1.27;;;;;;;;;;4886329;29;20147;-68
2022/07/05 08:34:06;;;;;;;2.83;1.52;;;;;;;;;;4883650;29;20099;-76
2022/07/05 08:36:36;;;;;;;2.22;1.08;;;;;;;;;;4885400;29;20057;-72
2022/07/05 08:39:03;;;;;;;4.22;1.10;;;;;;;;;;4888048;29;20117;-72
2022/07/05 08:41:31;;;;;;;5.85;1.35;;;;;;;;;;4885913;29;20045;-72
2022/07/05 08:43:58;;;;;;;5.15;1.20;;;;;;;;;;4881660;29;20136;-72
2022/07/05 08:46:25;;;;;;;2.15;0.90;;;;;;;;;;4866467;29;20512;-73
2022/07/05 08:48:52;;;;;;;1.95;1.25;;;;;;;;;;4868996;29;20052;-74
2022/07/05 08:51:21;;;;;;;2.30;0.95;;;;;;;;;;4883358;29;20105;-65
2022/07/05 08:53:49;;;;;;;4.75;1.05;;;;;;;;;;4884763;29;20113;-65
2022/07/05 08:56:16;;;;;;;2.38;0.77;;;;;;;;;;4883359;29;20508;-64
2022/07/05 08:58:55;;;;;;;2.88;1.00;;;;;;;;;;4885162;29;20087;-64
2022/07/05 09:01:22;;;;;;;4.43;1.23;;;;;;;;;;4884705;29;20052;-64
2022/07/05 09:03:50;;;;;;;1.85;0.70;;;;;;;;;;4881432;29;20056;-65
2022/07/05 09:06:19;;;;;;;2.75;0.75;;;;;;;;;;4883817;29;20059;-65
2022/07/05 09:08:46;;;;;;;2.25;0.82;;;;;;;;;;4887082;29;20496;-65
2022/07/05 09:11:14;;;;;;;2.70;0.90;;;;;;;;;;4882866;29;20048;-65
2022/07/05 09:13:44;;;;;;;1.80;0.85;;;;;;;;;;4890153;29;20147;-65
2022/07/05 09:16:32;;;;;;;2.00;0.82;;;;;;;;;;4891504;29;20063;-64
2022/07/05 09:19:08;;;;;;;1.70;1.00;;;;;;;;;;4886502;29;20472;-64
2022/07/05 09:21:35;;;;;;;0.65;0.65;;;;;;;;;;4886467;29;20501;-64
2022/07/05 09:24:04;;;;;;;2.25;0.90;;;;;;;;;;4884220;29;20053;-64
2022/07/05 09:26:36;;;;;;;1.83;1.00;;;;;;;;;;4883380;29;20076;-64
2022/07/05 09:29:09;;;;;;;2.95;0.85;;;;;;;;;;4886345;29;20180;-64
2022/07/05 09:31:56;;;;;;;5.07;0.95;;;;;;;;;;4882466;29;20056;-65
2022/07/05 09:34:23;;;;;;;3.13;0.65;;;;;;;;;;4886909;29;20052;-65
2022/07/05 09:36:50;;;;;;;6.28;0.90;;;;;;;;;;4882782;29;20136;-65
2022/07/05 09:39:29;;;;;;;2.88;0.70;;;;;;;;;;4889022;29;20051;-65
2022/07/05 09:42:14;;;;;;;2.10;1.02;;;;;;;;;;4890039;29;20081;-65
2022/07/05 09:44:54;;;;;;;3.10;1.00;;;;;;;;;;4887789;29;20082;-65
2022/07/05 09:47:27;;;;;;;3.05;1.00;;;;;;;;;;4886408;29;20049;-64
2022/07/05 09:50:05;;;;;;;1.85;1.00;;;;;;;;;;4888196;29;20511;-64
2022/07/05 09:52:37;;;;;;;0.98;0.85;;;;;;;;;;4890980;29;20049;-63
2022/07/05 09:55:20;;;;;;;1.30;0.80;;;;;;;;;;4889178;29;20055;-65
2022/07/05 09:57:47;;;;;;;1.00;0.88;;;;;;;;;;4889358;29;20280;-72
2022/07/05 10:00:18;;;;;;;0.77;0.65;;;;;;;;;;4891589;29;20108;-73
2022/07/05 10:02:49;;;;;;;2.65;0.90;;;;;;;;;;4885937;29;20049;-63
2022/07/05 10:05:19;;;;;;;3.08;1.20;;;;;;;;;;4892865;29;20044;-63
2022/07/05 10:08:06;;;;;;;2.30;0.90;;;;;;;;;;4888459;29;20144;-63
2022/07/05 10:10:33;;;;;;;0.93;0.60;;;;;;;;;;4889213;29;20063;-63
2022/07/05 10:13:06;;;;;;;0.55;0.55;;;;;;;;;;4891772;29;20049;-63
2022/07/05 10:15:34;;;;;;;0.70;0.70;;;;;;;;;;4890527;29;20132;-64
2022/07/05 10:18:14;;;;;;;1.00;0.52;;;;;;;;;;4889539;29;20051;-64
2022/07/05 10:20:44;;;;;;;1.85;0.80;;;;;;;;;;4869389;29;20080;-64
2022/07/05 10:23:18;;;;;;;0.90;0.55;;;;;;;;;;4893344;29;20076;-63
2022/07/05 10:25:49;;;;;;;1.55;0.80;;;;;;;;;;4894310;29;20058;-69
2022/07/05 10:28:17;;;;;;;2.72;0.60;;;;;;;;;;4894555;29;20564;-70
2022/07/05 10:30:45;;;;;;;1.90;0.63;;;;;;;;;;4895414;29;20135;-63
2022/07/05 10:33:16;;;;;;;3.08;0.52;;;;;;;;;;4894353;29;20049;-64
2022/07/05 10:36:24;;;;;;;2.88;1.00;;;;;;;;;;4852469;29;20057;-64
2022/07/05 10:38:50;;;;;;;1.70;0.63;;;;;;;;;;4847633;29;20513;-64
2022/07/05 10:41:20;;;;;;;2.58;0.60;;;;;;;;;;4830883;29;20050;-64
2022/07/05 10:43:57;;;;;;;2.28;0.60;;;;;;;;;;4817916;29;20435;-64
2022/07/05 10:46:41;;;;;;;0.70;0.50;;;;;;;;;;4845848;29;20057;-64
2022/07/05 10:49:11;;;;;;;1.10;0.70;;;;;;;;;;4848447;29;20520;-64
2022/07/05 10:51:38;;;;;;;0.65;0.60;;;;;;;;;;4844255;29;20506;-64
2022/07/05 10:54:05;;;;;;;1.85;0.75;;;;;;;;;;4830714;29;20090;-64
2022/07/05 11:00:10;;;;;;;0.95;0.50;;;;;;;;;;4849292;29;20054;-64
2022/07/05 11:02:37;;;;;;;2.05;0.50;;;;;;;;;;4845504;29;20054;-64
2022/07/05 11:05:04;;;;;;;2.25;0.98;;;;;;;;;;4847420;29;20058;-64
2022/07/05 11:07:59;;;;;;;3.90;0.50;;;;;;;;;;4875827;29;20425;-64
2022/07/05 11:10:26;;;;;;;2.58;0.77;;;;;;;;;;4887639;29;20048;-64
2022/07/05 11:12:52;;;;;;;2.78;0.80;;;;;;;;;;4888874;29;21050;-64
2022/07/05 11:15:19;;;;;;;0.52;0.50;;;;;;;;;;4884918;29;20048;-64
2022/07/05 11:17:45;;;;;;;3.05;0.70;;;;;;;;;;4885295;29;20056;-64
2022/07/05 11:20:27;;;;;;;2.70;0.70;;;;;;;;;;4887833;29;20146;-64
2022/07/05 11:23:07;;;;;;;1.40;0.60;;;;;;;;;;4884852;29;20057;-64
2022/07/05 11:25:39;;;;;;;2.17;0.55;;;;;;;;;;4888439;29;20053;-64
2022/07/05 11:28:14;;;;;;;1.23;0.80;;;;;;;;;;4886945;29;20573;-64
2022/07/05 11:30:45;;;;;;;1.55;0.73;;;;;;;;;;4892018;29;20056;-64
2022/07/05 11:33:28;;;;;;;1.52;0.50;;;;;;;;;;4893510;29;20044;-64
2022/07/05 11:35:56;;;;;;;2.45;0.60;;;;;;;;;;4894405;29;20049;-64
2022/07/05 11:38:23;;;;;;;2.42;0.70;;;;;;;;;;4883479;29;20060;-64
2022/07/05 11:41:14;;;;;;;2.75;0.70;;;;;;;;;;4885751;29;20427;-64
2022/07/05 11:43:42;;;;;;;1.88;0.70;;;;;;;;;;4888181;29;20046;-64
2022/07/05 11:46:09;;;;;;;1.60;0.70;;;;;;;;;;4883991;29;20049;-65
2022/07/05 11:48:55;;;;;;;1.27;0.40;;;;;;;;;;4886957;29;20461;-64
2022/07/05 11:51:22;;;;;;;0.90;0.60;;;;;;;;;;4883967;29;20060;-64
2022/07/05 11:53:49;;;;;;;4.50;0.82;;;;;;;;;;4886834;29;20060;-64
2022/07/05 11:56:35;;;;;;;1.15;0.60;;;;;;;;;;4883335;29;20547;-64
2022/07/05 11:59:16;;;;;;;1.90;0.68;;;;;;;;;;4884485;29;20052;-64
2022/07/05 12:01:44;;;;;;;0.75;0.50;;;;;;;;;;4884964;29;20052;-64
2022/07/05 12:04:11;;;;;;;2.75;0.93;;;;;;;;;;4890984;29;20340;-64
2022/07/05 12:06:41;;;;;;;1.35;0.70;;;;;;;;;;4896776;29;20052;-64
2022/07/05 12:09:08;;;;;;;2.38;0.57;;;;;;;;;;4897541;29;20056;-64
2022/07/05 12:14:23;;;;;;;1.55;0.68;;;;;;;;;;4897240;29;20052;-64
2022/07/05 12:17:12;;;;;;;1.77;0.70;;;;;;;;;;4897405;29;20056;-64
2022/07/05 12:19:48;;;;;;;1.55;0.70;;;;;;;;;;4896294;29;20056;-64
2022/07/05 12:22:15;;;;;;;0.65;0.50;;;;;;;;;;4896153;29;20103;-64
2022/07/05 12:24:41;;;;;;;2.47;0.60;;;;;;;;;;4897228;29;20048;-64
2022/07/05 12:27:09;;;;;;;2.28;0.70;;;;;;;;;;4896095;29;20524;-64
2022/07/05 12:29:36;;;;;;;1.92;0.90;;;;;;;;;;4896848;29;20056;-64
2022/07/05 12:32:05;;;;;;;2.38;0.88;;;;;;;;;;4897283;29;20071;-64
2022/07/05 12:34:32;;;;;;;1.45;0.70;;;;;;;;;;4897040;29;20048;-64
2022/07/05 12:36:59;;;;;;;0.98;0.60;;;;;;;;;;4897176;29;20052;-64
2022/07/05 12:39:26;;;;;;;4.07;0.73;;;;;;;;;;4896930;29;20061;-64
2022/07/05 12:41:53;;;;;;;1.13;0.60;;;;;;;;;;4897017;29;20101;-65
2022/07/05 12:44:20;;;;;;;2.90;0.85;;;;;;;;;;4896900;29;20334;-64
2022/07/05 12:46:49;;;;;;;1.23;0.80;;;;;;;;;;4897108;29;20060;-64
2022/07/05 12:49:16;;;;;;;1.77;0.90;;;;;;;;;;4896685;29;20080;-64
2022/07/05 12:51:43;;;;;;;2.45;0.60;;;;;;;;;;4896807;29;20554;-64
2022/07/05 13:00:04;;;;;;;5.18;0.82;;;;;;;;;;4895719;29;20060;-65
2022/07/05 13:02:41;;;;;;;0.63;0.60;;;;;;;;;;4896783;29;20052;-65
2022/07/05 13:05:10;;;;;;;2.35;0.70;;;;;;;;;;4896737;29;20060;-64
2022/07/05 13:07:43;;;;;;;1.23;0.70;;;;;;;;;;4896670;29;20052;-64
2022/07/05 13:10:17;;;;;;;4.15;0.57;;;;;;;;;;4896605;29;20139;-64
2022/07/05 13:12:44;;;;;;;2.45;0.88;;;;;;;;;;4896654;29;20052;-64
2022/07/05 13:15:12;;;;;;;2.40;0.80;;;;;;;;;;4899948;29;20048;-64
2022/07/05 13:17:38;;;;;;;1.38;1.02;;;;;;;;;;4900729;29;20068;-65
2022/07/05 13:20:06;;;;;;;2.97;0.50;;;;;;;;;;4899203;29;20052;-64
2022/07/05 13:22:33;;;;;;;0.85;0.50;;;;;;;;;;4900460;29;20051;-65
2022/07/05 13:24:59;;;;;;;0.93;0.60;;;;;;;;;;4900460;29;20063;-66
2022/07/05 13:27:26;;;;;;;2.88;0.82;;;;;;;;;;4900356;29;20078;-64
2022/07/05 13:29:55;;;;;;;2.08;0.95;;;;;;;;;;4900143;29;20568;-65
2022/07/05 13:32:21;;;;;;;0.82;0.50;;;;;;;;;;4900424;29;20062;-65
2022/07/05 13:34:48;;;;;;;0.65;0.65;;;;;;;;;;4900367;29;20428;-65
2022/07/05 13:37:15;;;;;;;1.60;0.73;;;;;;;;;;4900196;29;20057;-70
2022/07/05 13:39:42;;;;;;;1.00;0.50;;;;;;;;;;4900026;29;20059;-64
2022/07/05 13:42:08;;;;;;;0.93;0.60;;;;;;;;;;4900019;29;20063;-65
2022/07/05 13:44:35;;;;;;;2.30;0.65;;;;;;;;;;4900360;29;20568;-65
2022/07/05 13:47:03;;;;;;;1.80;0.68;;;;;;;;;;4900300;29;20080;-65
2022/07/05 13:49:30;;;;;;;2.65;0.55;;;;;;;;;;4900072;29;20059;-64
2022/07/05 13:52:00;;;;;;;3.05;0.70;;;;;;;;;;4899909;29;20060;-64
2022/07/05 13:54:28;;;;;;;3.72;0.88;;;;;;;;;;4899953;29;20056;-65
2022/07/05 13:56:54;;;;;;;1.88;1.13;;;;;;;;;;4900114;29;20077;-66
2022/07/05 13:59:21;;;;;;;1.15;0.75;;;;;;;;;;4882616;29;20049;-67
2022/07/05 14:01:48;;;;;;;1.70;0.60;;;;;;;;;;4894516;29;20081;-65
2022/07/05 14:04:15;;;;;;;2.67;0.70;;;;;;;;;;4886603;29;20053;-65
2022/07/05 14:06:42;;;;;;;3.45;0.80;;;;;;;;;;4885341;29;20049;-65
2022/07/05 14:09:08;;;;;;;1.15;0.82;;;;;;;;;;4886287;29;20468;-64
2022/07/05 14:11:35;;;;;;;1.27;0.85;;;;;;;;;;4885198;29;20060;-71
2022/07/05 14:14:02;;;;;;;3.65;0.73;;;;;;;;;;4885145;29;20497;-65
2022/07/05 14:16:29;;;;;;;5.35;0.88;;;;;;;;;;4885630;29;20061;-67
2022/07/05 14:18:56;;;;;;;1.27;0.80;;;;;;;;;;4885298;29;20075;-67
2022/07/05 14:21:22;;;;;;;1.48;1.15;;;;;;;;;;4885919;29;20059;-66
2022/07/05 14:24:04;;;;;;;2.08;0.88;;;;;;;;;;4892140;29;20076;-66
2022/07/05 14:26:32;;;;;;;1.55;0.95;;;;;;;;;;4887338;29;20056;-65
2022/07/05 14:29:00;;;;;;;2.47;0.60;;;;;;;;;;4884964;29;20049;-65
2022/07/05 14:31:30;;;;;;;1.90;0.80;;;;;;;;;;4890860;29;20199;-65
2022/07/05 14:33:58;;;;;;;1.55;0.82;;;;;;;;;;4889606;29;20052;-65
2022/07/05 14:36:24;;;;;;;3.05;0.60;;;;;;;;;;4886586;29;20420;-64
2022/07/05 14:38:51;;;;;;;2.15;0.55;;;;;;;;;;4887502;29;20059;-64
2022/07/05 14:41:18;;;;;;;1.10;0.70;;;;;;;;;;4885096;29;20052;-65
2022/07/05 14:43:44;;;;;;;0.88;0.60;;;;;;;;;;4886512;29;20049;-66
2022/07/05 14:46:17;;;;;;;2.60;0.88;;;;;;;;;;4887155;29;20057;-65
2022/07/05 14:48:45;;;;;;;2.45;0.70;;;;;;;;;;4888034;29;20060;-64
2022/07/05 14:51:12;;;;;;;1.77;0.60;;;;;;;;;;4884898;29;20052;-65
2022/07/05 14:53:38;;;;;;;1.63;0.70;;;;;;;;;;4890666;29;20045;-65
2022/07/05 14:56:05;;;;;;;2.72;0.70;;;;;;;;;;4884485;29;20049;-65
2022/07/05 14:58:32;;;;;;;2.88;0.77;;;;;;;;;;4886607;29;20060;-65
2022/07/05 15:00:58;;;;;;;1.05;0.80;;;;;;;;;;4885089;29;20076;-65
2022/07/05 15:03:26;;;;;;;2.15;0.90;;;;;;;;;;4889462;29;20503;-64
2022/07/05 15:05:53;;;;;;;2.38;0.73;;;;;;;;;;4884944;29;20061;-65
2022/07/05 15:08:19;;;;;;;2.35;0.85;;;;;;;;;;4886330;29;20059;-65
2022/07/05 15:10:47;;;;;;;1.55;0.73;;;;;;;;;;4884939;29;20053;-66